Time;durP1;ratioP1;P1;durP2;ratioP2;P2;SDS_P1;SDS_P2;PMS_P1;PMS_P2;Temp;Humidity;BMP_temperature;BMP_pressure;BME280_temperature;BME280_humidity;BME280_pressure;Samples;Min_cycle;Max_cycle;Signal;HPM_P1;HPM_P2
2022/11/25 00:00:48;;;;;;;;;;;5.80;86.40;;;4.59;80.32;95881.53;5071546;28;20216;-81
2022/11/25 00:03:16;;;;;;;;;;;5.80;86.40;;;4.58;80.22;95888.81;5072022;28;19926;-81
2022/11/25 00:05:45;;;;;;;;;;;5.80;86.40;;;4.58;80.43;95883.41;5071699;28;19977;-81
2022/11/25 00:08:13;;;;;;;;;;;5.80;86.40;;;4.59;80.15;95893.19;5072099;28;19926;-81
2022/11/25 00:10:41;;;;;;;;;;;5.80;86.40;;;4.58;80.24;95886.13;5071052;28;19927;-81
2022/11/25 00:13:09;;;;;;;;;;;5.80;86.40;;;4.59;80.48;95889.66;5071817;28;19926;-81
2022/11/25 00:15:37;;;;;;;;;;;5.80;86.50;;;4.58;80.07;95891.53;5070660;28;19921;-81
2022/11/25 00:18:05;;;;;;;;;;;5.80;86.50;;;4.59;80.24;95892.38;5070944;28;19920;-81
2022/11/25 00:20:33;;;;;;;;;;;5.80;86.50;;;4.57;80.32;95889.91;5071936;28;19920;-81
2022/11/25 00:23:02;;;;;;;;;;;5.80;86.40;;;4.58;80.05;95891.53;5071772;28;19927;-81
2022/11/25 00:25:30;;;;;;;;;;;5.80;86.30;;;4.58;80.36;95896.97;5070262;28;20120;-81
2022/11/25 00:27:58;;;;;;;;;;;5.80;86.40;;;4.58;79.94;95902.38;5071739;28;19921;-81
2022/11/25 00:30:26;;;;;;;;;;;5.80;86.40;;;4.58;80.06;95901.56;5071772;28;19920;-81
2022/11/25 00:32:54;;;;;;;;;;;5.80;86.40;;;4.59;80.47;95903.22;5070585;28;19921;-81
2022/11/25 00:35:22;;;;;;;;;;;5.80;86.40;;;4.58;80.35;95905.09;5070165;28;20120;-81
2022/11/25 00:37:50;;;;;;;;;;;5.80;86.40;;;4.57;80.44;95900.75;5071055;28;19927;-81
2022/11/25 00:40:19;;;;;;;;;;;5.80;86.40;;;4.58;79.96;95901.56;5053817;28;20094;-81
2022/11/25 00:45:47;;;;;;;;;;;5.80;86.40;;;4.58;80.37;95907.78;4990236;28;19921;-81
2022/11/25 00:48:15;;;;;;;;;;;5.80;86.40;;;4.58;80.07;95909.69;4974460;28;19926;-81
2022/11/25 00:50:43;;;;;;;;;;;5.80;86.40;;;4.59;80.47;95908.63;4999653;28;19921;-81
2022/11/25 00:53:11;;;;;;;;;;;5.80;86.40;;;4.58;80.21;95915.13;5053568;28;19920;-81
2022/11/25 00:58:22;;;;;;;;;;;5.80;86.40;;;4.59;79.92;95914.06;5071147;28;19921;-81
2022/11/25 01:00:50;;;;;;;;;;;5.80;86.40;;;4.57;80.37;95917.03;5053713;28;19921;-81
2022/11/25 01:03:18;;;;;;;;;;;5.80;86.40;;;4.58;80.18;95923.25;5070037;28;19943;-81
2022/11/25 01:05:45;;;;;;;;;;;5.80;86.20;;;4.57;80.39;95919.72;5069977;28;19926;-81
2022/11/25 01:08:15;;;;;;;;;;;5.80;86.40;;;4.57;80.36;95927.88;5053422;28;20208;-81
2022/11/25 01:10:44;;;;;;;;;;;5.80;86.40;;;4.57;80.14;95927.88;5070130;28;19927;-81
2022/11/25 01:13:12;;;;;;;;;;;5.80;86.40;;;4.56;80.39;95926.22;5069837;28;19921;-81
2022/11/25 01:15:40;;;;;;;;;;;5.80;86.40;;;4.57;80.27;95919.72;5069722;28;19943;-81
2022/11/25 01:18:08;;;;;;;;;;;5.80;86.40;;;4.57;80.15;95927.88;5071267;28;19921;-82
2022/11/25 01:20:35;;;;;;;;;;;5.80;86.40;;;4.56;80.26;95923.50;5070117;28;20213;-82
2022/11/25 01:23:03;;;;;;;;;;;5.80;86.40;;;4.57;80.21;95925.16;5053327;28;19920;-81
2022/11/25 01:25:31;;;;;;;;;;;5.80;86.40;;;4.57;80.42;95927.03;5070549;28;19956;-81
2022/11/25 01:28:02;;;;;;;;;;;5.80;86.30;;;4.57;80.45;95933.28;5053306;28;20235;-81
2022/11/25 01:30:30;;;;;;;;;;;5.80;86.40;;;4.57;80.42;95924.31;5052986;28;19921;-81
2022/11/25 01:32:58;;;;;;;;;;;5.80;86.40;;;4.57;80.45;95933.28;5053322;28;19927;-81
2022/11/25 01:35:27;;;;;;;;;;;5.80;86.50;;;4.57;80.46;95933.28;5069467;28;19934;-81
2022/11/25 01:37:55;;;;;;;;;;;5.80;86.40;;;4.57;80.18;95930.56;5069829;28;19920;-81
2022/11/25 01:40:25;;;;;;;;;;;5.80;86.40;;;4.57;80.38;95935.16;5069539;28;19921;-81
2022/11/25 01:42:53;;;;;;;;;;;5.80;86.50;;;4.57;80.55;95932.44;5069860;28;20213;-81
2022/11/25 01:45:35;;;;;;;;;;;5.80;86.50;;;4.56;80.48;95931.63;5069093;28;19921;-81
2022/11/25 01:48:06;;;;;;;;;;;5.80;86.40;;;4.56;79.99;95937.06;5069679;28;19920;-81
2022/11/25 01:50:34;;;;;;;;;;;5.80;86.40;;;4.57;80.25;95937.88;5069715;28;19943;-81
2022/11/25 01:53:02;;;;;;;;;;;5.80;86.50;;;4.56;80.10;95937.06;5070778;28;19920;-81
2022/11/25 01:55:30;;;;;;;;;;;5.70;86.60;;;4.56;80.16;95936.22;5069133;28;19927;-81
2022/11/25 01:57:59;;;;;;;;;;;5.70;86.50;;;4.56;80.48;95939.78;5069526;28;19920;-81
2022/11/25 02:00:27;;;;;;;;;;;5.70;86.50;;;4.56;80.09;95941.66;5069732;28;19921;-81
2022/11/25 02:02:56;;;;;;;;;;;5.70;86.50;;;4.56;80.43;95942.47;5069505;28;19934;-81
2022/11/25 02:05:26;;;;;;;;;;;5.70;86.40;;;4.56;80.08;95947.91;5052275;28;19921;-81
2022/11/25 02:07:54;;;;;;;;;;;5.80;86.40;;;4.56;80.26;95950.63;5052706;28;20231;-81
2022/11/25 02:10:24;;;;;;;;;;;5.80;86.40;;;4.55;80.02;95948.97;5069437;28;19920;-81
2022/11/25 02:12:52;;;;;;;;;;;5.80;86.40;;;4.56;80.79;95952.47;5069686;28;19927;-81
2022/11/25 02:15:20;;;;;;;;;;;5.80;86.40;;;4.55;80.53;95959.81;5069989;28;19927;-81
2022/11/25 02:17:48;;;;;;;;;;;5.80;86.50;;;4.55;80.17;95965.22;5069487;28;20116;-81
2022/11/25 02:20:18;;;;;;;;;;;5.80;86.50;;;4.56;80.30;95968.75;5069284;28;19927;-81
2022/11/25 02:22:57;;;;;;;;;;;5.80;86.40;;;4.56;80.30;95968.75;5069347;28;19927;-81
2022/11/25 02:25:28;;;;;;;;;;;5.70;86.50;;;4.56;79.98;95969.59;5071241;28;19920;-81
2022/11/25 02:27:59;;;;;;;;;;;5.70;86.40;;;4.56;80.51;95969.59;5055720;28;19924;-81
2022/11/25 02:30:27;;;;;;;;;;;5.70;86.50;;;4.56;80.11;95969.59;5073791;28;20218;-81
2022/11/25 02:32:55;;;;;;;;;;;5.70;86.40;;;4.56;80.52;95976.88;5073104;28;19925;-80
2022/11/25 02:35:25;;;;;;;;;;;5.70;86.50;;;4.56;80.44;95975.00;5073124;28;19926;-80
2022/11/25 02:37:54;;;;;;;;;;;5.80;86.50;;;4.55;80.10;95978.78;5072592;28;20212;-80
2022/11/25 02:40:22;;;;;;;;;;;5.70;86.50;;;4.55;80.35;95978.78;5072505;28;20093;-80
2022/11/25 02:42:52;;;;;;;;;;;5.70;86.60;;;4.55;80.17;95978.78;5072185;28;19927;-80
2022/11/25 02:45:21;;;;;;;;;;;5.70;86.50;;;4.56;80.38;95985.00;5071920;28;19921;-80
2022/11/25 02:47:49;;;;;;;;;;;5.70;86.50;;;4.55;80.31;95989.63;5072391;28;19921;-80
2022/11/25 02:50:17;;;;;;;;;;;5.70;86.50;;;4.56;80.14;95991.28;5055767;28;19931;-80
2022/11/25 02:52:45;;;;;;;;;;;5.70;86.50;;;4.56;80.56;95994.00;5072427;28;19921;-80
2022/11/25 02:55:12;;;;;;;;;;;5.70;86.50;;;4.55;80.44;95991.50;5071729;28;19934;-80
2022/11/25 02:57:40;;;;;;;;;;;5.70;86.40;;;4.55;80.54;95989.63;5072206;28;20212;-80
2022/11/25 03:00:11;;;;;;;;;;;5.70;86.50;;;4.55;80.34;96000.47;5055591;28;19926;-80
2022/11/25 03:02:41;;;;;;;;;;;5.70;86.50;;;4.54;80.26;96001.53;5071994;28;19926;-80
2022/11/25 03:05:09;;;;;;;;;;;5.70;86.40;;;4.55;80.63;96007.75;5071811;28;20217;-80
2022/11/25 03:07:38;;;;;;;;;;;5.70;86.50;;;4.54;80.34;96008.81;5071999;28;20209;-80
2022/11/25 03:10:06;;;;;;;;;;;5.70;86.50;;;4.54;80.34;96006.13;5071904;28;19920;-80
2022/11/25 03:12:35;;;;;;;;;;;5.70;86.50;;;4.53;80.12;96010.72;5072047;28;19920;-80
2022/11/25 03:15:04;;;;;;;;;;;5.70;86.40;;;4.54;79.94;96012.38;5071453;28;19927;-80
2022/11/25 03:17:33;;;;;;;;;;;5.70;86.30;;;4.54;80.07;96009.66;5071232;28;19926;-80
2022/11/25 03:20:01;;;;;;;;;;;5.70;86.50;;;4.54;80.34;96015.09;5055187;28;19920;-80
2022/11/25 03:22:29;;;;;;;;;;;5.70;86.50;;;4.54;80.01;96016.97;5072035;28;19935;-80
2022/11/25 03:24:57;;;;;;;;;;;5.70;86.50;;;4.55;80.19;96013.19;5070944;28;19925;-80
2022/11/25 03:27:25;;;;;;;;;;;5.70;86.60;;;4.54;80.03;96025.94;5071722;28;19921;-80
2022/11/25 03:29:53;;;;;;;;;;;5.70;86.50;;;4.54;80.23;96025.94;5071414;28;19956;-80
2022/11/25 03:32:22;;;;;;;;;;;5.70;86.70;;;4.53;80.17;96024.28;5071762;28;19927;-80
2022/11/25 03:34:51;;;;;;;;;;;5.70;86.80;;;4.54;80.31;96031.34;5070731;28;19922;-80
2022/11/25 03:37:19;;;;;;;;;;;5.70;86.60;;;4.55;80.38;96021.31;5070740;28;19921;-81
2022/11/25 03:39:48;;;;;;;;;;;5.70;86.50;;;4.54;80.26;96028.63;5070961;28;20258;-80
2022/11/25 03:42:16;;;;;;;;;;;5.70;86.40;;;4.54;80.44;96031.34;5071519;28;19921;-80
2022/11/25 03:44:44;;;;;;;;;;;5.70;86.50;;;4.54;80.01;96034.06;5054067;28;19920;-80
2022/11/25 03:47:12;;;;;;;;;;;5.70;86.50;;;4.54;80.50;96030.50;5071578;28;19920;-80
2022/11/25 03:49:40;;;;;;;;;;;5.70;86.50;;;4.53;80.24;96032.41;5072090;28;19927;-80
2022/11/25 03:52:09;;;;;;;;;;;5.70;86.70;;;4.54;80.67;96036.78;5054613;28;20238;-80
2022/11/25 03:54:37;;;;;;;;;;;5.70;86.60;;;4.53;80.46;96043.25;5071341;28;19920;-80
2022/11/25 03:57:21;;;;;;;;;;;5.70;86.60;;;4.54;80.62;96035.94;5105226;28;20254;-80
2022/11/25 03:59:49;;;;;;;;;;;5.70;86.70;;;4.53;80.65;96037.84;5050909;28;19935;-80
2022/11/25 04:02:18;;;;;;;;;;;5.70;86.70;;;4.53;80.26;96045.13;5034705;28;20090;-81
2022/11/25 04:04:46;;;;;;;;;;;5.70;86.70;;;4.53;80.40;96040.53;5050442;28;19921;-80
2022/11/25 04:07:15;;;;;;;;;;;5.70;86.50;;;4.54;80.26;96047.63;5034659;28;19921;-80
2022/11/25 04:09:43;;;;;;;;;;;5.70;86.60;;;4.52;80.34;96047.03;5081180;28;19921;-80
2022/11/25 04:15:07;;;;;;;;;;;5.70;86.50;;;4.52;80.39;96054.34;5070734;28;20209;-80
2022/11/25 04:17:35;;;;;;;;;;;5.70;86.50;;;4.54;80.31;96057.63;5087715;28;19934;-80
2022/11/25 04:20:04;;;;;;;;;;;5.70;86.50;;;4.54;80.61;96057.63;5070776;28;19927;-80
2022/11/25 04:22:33;;;;;;;;;;;5.70;86.50;;;4.52;80.42;96055.16;5070896;28;19920;-80
2022/11/25 04:25:04;;;;;;;;;;;5.70;86.50;;;4.52;80.48;96057.06;5053604;28;20209;-80
2022/11/25 04:27:32;;;;;;;;;;;5.70;86.50;;;4.53;80.35;96062.22;5071051;28;19927;-80
2022/11/25 04:30:00;;;;;;;;;;;5.70;86.50;;;4.53;80.15;96064.94;5070813;28;19920;-80
2022/11/25 04:32:29;;;;;;;;;;;5.70;86.50;;;4.52;80.13;96063.28;5054360;28;19921;-80
2022/11/25 04:34:57;;;;;;;;;;;5.70;86.40;;;4.52;80.46;96066.00;5070220;28;19920;-80
2022/11/25 04:37:25;;;;;;;;;;;5.70;86.40;;;4.53;80.41;96073.06;5054027;28;19924;-80
2022/11/25 04:39:56;;;;;;;;;;;5.70;86.50;;;4.52;80.30;96079.56;5070565;28;19927;-80
2022/11/25 04:42:35;;;;;;;;;;;5.70;86.50;;;4.52;80.50;96070.59;5054105;28;19927;-80
2022/11/25 04:45:07;;;;;;;;;;;5.70;86.60;;;4.53;80.25;96078.50;5070078;28;19928;-80
2022/11/25 04:47:35;;;;;;;;;;;5.70;86.60;;;4.53;80.27;96086.63;5070030;28;20097;-80
2022/11/25 04:50:04;;;;;;;;;;;5.70;86.60;;;4.52;80.58;96082.25;5070600;28;19920;-80
2022/11/25 04:52:34;;;;;;;;;;;5.70;86.60;;;4.51;80.29;96086.03;5053835;28;19928;-80
2022/11/25 04:55:03;;;;;;;;;;;5.70;86.80;;;4.51;80.20;96080.63;5052925;28;19927;-80
2022/11/25 04:57:31;;;;;;;;;;;5.70;86.60;;;4.53;80.13;96089.34;5071695;28;19926;-80
2022/11/25 04:59:58;;;;;;;;;;;5.70;86.50;;;4.53;80.39;96089.34;5069954;28;19920;-80
2022/11/25 05:02:27;;;;;;;;;;;5.70;86.60;;;4.53;80.11;96097.47;5071630;28;19920;-80
2022/11/25 05:05:02;;;;;;;;;;;5.70;86.60;;;4.52;80.30;96095.81;5069487;28;19921;-80
2022/11/25 05:07:31;;;;;;;;;;;5.70;86.50;;;4.52;80.32;96095.00;5070168;28;19940;-80
2022/11/25 05:10:00;;;;;;;;;;;5.70;86.50;;;4.51;80.33;96105.00;5069736;28;19920;-80
2022/11/25 05:12:39;;;;;;;;;;;5.70;86.70;;;4.52;80.60;96106.66;5053639;28;19920;-80
2022/11/25 05:15:11;;;;;;;;;;;5.70;86.60;;;4.52;80.34;96114.78;5069759;28;19920;-80
2022/11/25 05:17:40;;;;;;;;;;;5.70;86.60;;;4.51;80.22;96113.16;5070121;28;19927;-80
2022/11/25 05:20:09;;;;;;;;;;;5.70;86.50;;;4.52;80.44;96119.41;5086556;28;19920;-80
2022/11/25 05:22:37;;;;;;;;;;;5.70;86.60;;;4.52;80.57;96122.13;5071284;28;20336;-80
2022/11/25 05:25:09;;;;;;;;;;;5.70;86.50;;;4.52;80.46;96120.22;5052605;28;20121;-80
2022/11/25 05:27:45;;;;;;;;;;;5.70;86.50;;;4.51;80.76;96118.56;5053485;28;19927;-80
2022/11/25 05:30:15;;;;;;;;;;;5.70;86.70;;;4.51;80.22;96121.28;5053094;28;20514;-80
2022/11/25 05:32:44;;;;;;;;;;;5.70;86.50;;;4.51;80.23;96123.97;5070041;28;20208;-80
2022/11/25 05:35:12;;;;;;;;;;;5.70;86.60;;;4.52;80.23;96124.81;5069251;28;19920;-80
2022/11/25 05:37:42;;;;;;;;;;;5.70;86.60;;;4.52;80.14;96143.81;5053320;28;20115;-80
2022/11/25 05:40:12;;;;;;;;;;;5.70;86.40;;;4.51;80.37;96151.09;5053059;28;19929;-80
2022/11/25 05:43:04;;;;;;;;;;;5.70;86.70;;;4.51;80.69;96142.97;5065458;28;19927;-80
2022/11/25 05:45:35;;;;;;;;;;;5.70;86.60;;;4.51;80.51;96148.38;5069105;28;19921;-80
2022/11/25 05:48:05;;;;;;;;;;;5.70;86.60;;;4.50;80.46;96146.72;5069617;28;19927;-80
2022/11/25 05:50:34;;;;;;;;;;;5.70;86.50;;;4.50;80.52;96157.56;5069619;28;19920;-80
2022/11/25 05:53:08;;;;;;;;;;;5.70;86.60;;;4.51;80.35;96158.41;5053021;28;20231;-80
2022/11/25 05:55:37;;;;;;;;;;;5.70;86.60;;;4.50;80.31;96160.28;5069174;28;19920;-80
2022/11/25 05:58:10;;;;;;;;;;;5.70;86.50;;;4.50;80.68;96165.69;5052936;28;19927;-80
2022/11/25 06:00:38;;;;;;;;;;;5.70;86.50;;;4.51;80.31;96167.34;5072698;28;20113;-80
2022/11/25 06:03:10;;;;;;;;;;;5.70;86.60;;;4.51;80.69;96169.25;5072969;28;19927;-80
2022/11/25 06:05:40;;;;;;;;;;;5.70;86.70;;;4.51;80.57;96175.50;5055900;28;19921;-80
2022/11/25 06:08:08;;;;;;;;;;;5.70;86.50;;;4.51;80.64;96182.81;5073254;28;19921;-80
2022/11/25 06:10:38;;;;;;;;;;;5.70;86.50;;;4.51;80.18;96188.22;5055925;28;20209;-80
2022/11/25 06:13:06;;;;;;;;;;;5.70;86.50;;;4.51;80.47;96194.47;5073015;28;19920;-80
2022/11/25 06:15:39;;;;;;;;;;;5.70;86.50;;;4.51;80.22;96193.66;5072311;28;19920;-80
2022/11/25 06:18:08;;;;;;;;;;;5.70;86.60;;;4.51;80.25;96189.03;5072966;28;19920;-80
2022/11/25 06:20:36;;;;;;;;;;;5.70;86.50;;;4.52;80.60;96198.84;5072624;28;20116;-80
2022/11/25 06:23:05;;;;;;;;;;;5.70;86.60;;;4.51;80.50;96205.31;5072699;28;19935;-80
2022/11/25 06:25:36;;;;;;;;;;;5.70;86.70;;;4.51;80.09;96199.88;5072343;28;19920;-80
2022/11/25 06:28:04;;;;;;;;;;;5.70;86.50;;;4.50;80.31;96209.06;5056163;28;19927;-80
2022/11/25 06:30:32;;;;;;;;;;;5.70;86.50;;;4.50;80.43;96214.50;5072484;28;19921;-80
2022/11/25 06:33:16;;;;;;;;;;;5.70;86.70;;;4.51;80.31;96213.44;5055669;28;19934;-80
2022/11/25 06:35:46;;;;;;;;;;;5.70;86.50;;;4.51;80.76;96224.28;5072345;28;19921;-80
2022/11/25 06:38:17;;;;;;;;;;;5.70;86.70;;;4.50;80.54;96219.91;5056100;28;19935;-80
2022/11/25 06:40:45;;;;;;;;;;;5.70;86.70;;;4.51;80.71;96226.19;5072505;28;19920;-80
2022/11/25 06:43:13;;;;;;;;;;;5.70;86.60;;;4.50;80.23;96229.94;5055668;28;20119;-80
2022/11/25 06:45:41;;;;;;;;;;;5.70;86.60;;;4.51;80.47;96237.03;5071927;28;19921;-80
2022/11/25 06:48:09;;;;;;;;;;;5.70;86.40;;;4.50;80.27;96230.75;5072480;28;19920;-80
2022/11/25 06:50:39;;;;;;;;;;;5.70;86.60;;;4.50;80.15;96244.31;5073262;28;19920;-80
2022/11/25 06:53:07;;;;;;;;;;;5.70;86.50;;;4.50;80.10;96243.50;5072301;28;19927;-80
2022/11/25 06:55:35;;;;;;;;;;;5.70;86.50;;;4.50;80.58;96251.63;5072752;28;19927;-80
2022/11/25 06:58:03;;;;;;;;;;;5.70;86.70;;;4.50;80.53;96254.34;5055508;28;19927;-80
2022/11/25 07:00:31;;;;;;;;;;;5.70;86.70;;;4.50;80.51;96255.16;5071989;28;19926;-80
2022/11/25 07:02:59;;;;;;;;;;;5.70;86.50;;;4.50;80.40;96252.44;5072301;28;20120;-80
2022/11/25 07:05:27;;;;;;;;;;;5.70;86.60;;;4.50;80.69;96257.88;5071687;28;19920;-80
2022/11/25 07:07:56;;;;;;;;;;;5.70;86.60;;;4.50;80.24;96268.72;5073251;28;19920;-80
2022/11/25 07:10:24;;;;;;;;;;;5.70;86.70;;;4.50;80.59;96268.72;5071386;28;19920;-80
2022/11/25 07:12:52;;;;;;;;;;;5.70;86.50;;;4.50;80.36;96266.00;5073166;28;19920;-80
2022/11/25 07:15:20;;;;;;;;;;;5.70;86.60;;;4.50;80.32;96276.84;5071285;28;20108;-80
2022/11/25 07:17:48;;;;;;;;;;;5.70;86.60;;;4.50;80.47;96274.13;5071865;28;19921;-80
2022/11/25 07:20:16;;;;;;;;;;;5.70;86.50;;;4.50;80.13;96276.84;5072834;28;19920;-80
2022/11/25 07:22:44;;;;;;;;;;;5.70;86.60;;;4.50;80.56;96276.84;5071980;28;19926;-80
2022/11/25 07:25:13;;;;;;;;;;;5.70;86.50;;;4.51;80.39;96291.25;5072153;28;19927;-80
2022/11/25 07:27:41;;;;;;;;;;;5.70;86.50;;;4.51;80.54;96293.97;5072828;28;19928;-80
2022/11/25 07:30:09;;;;;;;;;;;5.70;86.50;;;4.51;80.34;96296.66;5054974;28;19929;-80
2022/11/25 07:32:38;;;;;;;;;;;5.70;86.60;;;4.50;80.08;96295.81;5071902;28;20230;-80
2022/11/25 07:35:07;;;;;;;;;;;5.70;86.60;;;4.50;80.30;96301.25;5071145;28;20204;-80
2022/11/25 07:37:34;;;;;;;;;;;5.70;86.50;;;4.50;80.39;96303.97;5072984;28;19926;-80
2022/11/25 07:40:02;;;;;;;;;;;5.70;86.70;;;4.51;80.64;96313.75;5054634;28;20116;-80
2022/11/25 07:42:32;;;;;;;;;;;5.70;86.70;;;4.50;80.36;96312.09;5054828;28;20209;-80
2022/11/25 07:45:00;;;;;;;;;;;5.70;86.50;;;4.51;80.64;96315.66;5071967;28;19935;-80
2022/11/25 07:47:42;;;;;;;;;;;5.70;86.70;;;4.51;80.26;96324.59;5054824;28;19920;-80
2022/11/25 07:50:11;;;;;;;;;;;5.70;86.50;;;4.50;80.52;96324.84;5071425;28;19927;-80
2022/11/25 07:52:39;;;;;;;;;;;5.70;86.60;;;4.50;80.08;96322.94;5071505;28;19921;-80
2022/11/25 07:55:08;;;;;;;;;;;5.70;86.50;;;4.50;80.32;96324.84;5070689;28;19920;-80
2022/11/25 07:57:37;;;;;;;;;;;5.70;86.50;;;4.50;80.35;96328.34;5054657;28;20124;-80
2022/11/25 08:00:07;;;;;;;;;;;5.70;86.70;;;4.49;80.31;96334.84;5071035;28;19920;-80
2022/11/25 08:02:39;;;;;;;;;;;5.70;86.50;;;4.51;80.23;96335.44;5071334;28;19920;-80
2022/11/25 08:05:08;;;;;;;;;;;5.70;86.60;;;4.51;80.21;96340.03;5070890;28;19920;-81
2022/11/25 08:07:36;;;;;;;;;;;5.70;86.60;;;4.49;80.43;96342.97;5072240;28;19921;-81
2022/11/25 08:10:04;;;;;;;;;;;5.70;86.70;;;4.49;80.56;96353.81;5070989;28;20220;-80
2022/11/25 08:12:32;;;;;;;;;;;5.70;86.60;;;4.50;80.58;96360.06;5071203;28;20097;-80
2022/11/25 08:15:01;;;;;;;;;;;5.70;86.40;;;4.50;80.46;96354.66;5070385;28;19929;-80
2022/11/25 08:17:29;;;;;;;;;;;5.70;86.50;;;4.51;80.48;96356.31;5054254;28;19927;-80
2022/11/25 08:19:57;;;;;;;;;;;5.70;86.50;;;4.50;80.63;96358.19;5070712;28;20121;-80
2022/11/25 08:22:25;;;;;;;;;;;5.70;86.50;;;4.51;80.50;96367.97;5053459;28;19920;-80
2022/11/25 08:24:53;;;;;;;;;;;5.70;86.50;;;4.51;80.03;96364.44;5071279;28;20156;-80
2022/11/25 08:27:21;;;;;;;;;;;5.70;86.50;;;4.51;80.52;96372.56;5071918;28;20119;-80
2022/11/25 08:29:49;;;;;;;;;;;5.70;86.60;;;4.50;80.42;96377.16;5053947;28;19921;-80
2022/11/25 08:32:20;;;;;;;;;;;5.70;86.50;;;4.51;80.29;96373.38;5070725;28;20209;-79
2022/11/25 08:34:48;;;;;;;;;;;5.70;86.50;;;4.51;80.16;96378.81;5070481;28;19921;-80
2022/11/25 08:37:16;;;;;;;;;;;5.70;86.50;;;4.52;80.14;96375.06;5054083;28;20216;-80
2022/11/25 08:39:44;;;;;;;;;;;5.70;86.50;;;4.51;80.30;96386.94;5070704;28;19927;-80
2022/11/25 08:42:12;;;;;;;;;;;5.70;86.50;;;4.52;80.19;96391.31;5070810;28;20143;-80
2022/11/25 08:44:40;;;;;;;;;;;5.70;86.40;;;4.51;80.44;96388.84;5071032;28;19927;-80
2022/11/25 08:47:08;;;;;;;;;;;5.70;86.50;;;4.51;80.55;96397.78;5053688;28;19920;-80
2022/11/25 08:49:38;;;;;;;;;;;5.70;86.60;;;4.51;80.45;96400.50;5070418;28;19976;-81
2022/11/25 08:52:06;;;;;;;;;;;5.70;86.50;;;4.51;80.22;96395.09;5071766;28;19921;-81
2022/11/25 08:54:33;;;;;;;;;;;5.70;86.60;;;4.51;80.44;96395.09;5071312;28;19920;-81
2022/11/25 08:57:01;;;;;;;;;;;5.70;86.40;;;4.51;80.46;96395.09;5071154;28;19921;-80
2022/11/25 08:59:29;;;;;;;;;;;5.70;86.50;;;4.51;80.33;96403.22;5070332;28;19921;-80
2022/11/25 09:01:57;;;;;;;;;;;5.70;86.50;;;4.51;80.13;96405.91;5070236;28;19927;-80
2022/11/25 09:04:25;;;;;;;;;;;5.70;86.40;;;4.50;80.31;96409.69;5071191;28;19922;-80
2022/11/25 09:06:54;;;;;;;;;;;5.70;86.50;;;4.51;80.07;96416.78;5069988;28;19933;-81
2022/11/25 09:09:22;;;;;;;;;;;5.70;86.60;;;4.51;80.17;96418.66;5071328;28;19920;-81
2022/11/25 09:11:50;;;;;;;;;;;5.70;86.50;;;4.50;80.34;96415.13;5070111;28;19921;-81
2022/11/25 09:14:18;;;;;;;;;;;5.70;86.70;;;4.51;80.31;96421.38;5069701;28;19921;-80
2022/11/25 09:16:46;;;;;;;;;;;5.70;86.50;;;4.50;80.29;96420.53;5069585;28;19920;-80
2022/11/25 09:19:14;;;;;;;;;;;5.70;86.50;;;4.51;80.31;96422.19;5069905;28;19920;-80
2022/11/25 09:21:43;;;;;;;;;;;5.70;86.50;;;4.50;80.56;96425.13;5071320;28;20200;-81
2022/11/25 09:24:12;;;;;;;;;;;5.70;86.50;;;4.51;80.21;96424.91;5071001;28;19926;-80
2022/11/25 09:26:41;;;;;;;;;;;5.70;86.50;;;4.51;80.08;96430.31;5103322;28;19929;-81
2022/11/25 09:29:09;;;;;;;;;;;5.70;86.40;;;4.50;80.30;96417.81;5070957;28;19921;-81
2022/11/25 09:31:36;;;;;;;;;;;5.70;86.50;;;4.50;80.56;96425.94;5071154;28;19920;-81
2022/11/25 09:34:04;;;;;;;;;;;5.70;86.40;;;4.51;80.55;96429.50;5051972;28;19921;-81
2022/11/25 09:36:32;;;;;;;;;;;5.70;86.50;;;4.52;80.34;96429.28;5054224;28;19927;-80
2022/11/25 09:39:00;;;;;;;;;;;5.70;86.50;;;4.52;80.04;96429.28;5053446;28;19927;-81
2022/11/25 09:47:18;;;;;;;;;;;5.70;86.50;;;4.51;80.55;96430.31;5036882;28;19921;-80
2022/11/25 09:49:54;;;;;;;;;;;5.70;86.50;;;4.52;80.52;96429.28;5054131;28;19975;-81
2022/11/25 09:52:25;;;;;;;;;;;5.70;86.40;;;4.52;79.94;96418.44;5054309;28;19920;-81
2022/11/25 09:54:56;;;;;;;;;;;5.70;86.50;;;4.54;80.29;96423.59;5052585;28;19929;-80
2022/11/25 09:57:29;;;;;;;;;;;5.70;86.50;;;4.52;80.25;96418.44;5054316;28;19928;-80
2022/11/25 10:00:02;;;;;;;;;;;5.70;86.40;;;4.51;80.19;96424.91;5054371;28;20209;-80
2022/11/25 10:02:42;;;;;;;;;;;5.70;86.40;;;4.52;79.95;96421.13;5086516;28;19942;-81
2022/11/25 10:05:15;;;;;;;;;;;5.70;86.50;;;4.54;80.28;96426.31;5052595;28;19975;-80
2022/11/25 10:07:44;;;;;;;;;;;5.70;86.30;;;4.53;80.54;96417.38;5053016;28;19946;-81
2022/11/25 10:10:18;;;;;;;;;;;5.70;86.40;;;4.54;80.52;96420.91;5052792;28;19920;-80
2022/11/25 10:12:48;;;;;;;;;;;5.70;86.30;;;4.54;80.47;96424.47;5053070;28;19943;-80
2022/11/25 10:15:18;;;;;;;;;;;5.70;86.40;;;4.54;80.31;96424.47;5053462;28;20120;-80
2022/11/25 10:17:48;;;;;;;;;;;5.70;86.40;;;4.53;80.38;96417.38;5053924;28;19921;-80
2022/11/25 10:20:19;;;;;;;;;;;5.70;86.40;;;4.54;80.46;96421.75;5053019;28;19927;-80
2022/11/25 10:22:48;;;;;;;;;;;5.70;86.40;;;4.53;79.98;96414.66;5069543;28;19921;-81
2022/11/25 10:25:18;;;;;;;;;;;5.70;86.30;;;4.53;80.39;96420.09;5053427;28;19928;-81
2022/11/25 10:27:49;;;;;;;;;;;5.70;86.40;;;4.54;80.23;96421.75;5052673;28;19927;-81
2022/11/25 10:30:18;;;;;;;;;;;5.70;86.30;;;4.54;79.88;96416.31;5035912;28;19921;-81
2022/11/25 10:32:49;;;;;;;;;;;5.70;86.40;;;4.54;80.11;96416.31;5052781;28;19927;-81
2022/11/25 10:35:21;;;;;;;;;;;5.70;86.30;;;4.54;80.39;96421.75;5085739;28;19921;-80
2022/11/25 10:37:53;;;;;;;;;;;5.70;86.50;;;4.55;80.05;96420.69;5052595;28;19936;-80
2022/11/25 10:40:21;;;;;;;;;;;5.70;86.40;;;4.54;80.46;96416.31;5052633;28;20231;-80
2022/11/25 10:42:51;;;;;;;;;;;5.70;86.40;;;4.55;80.18;96420.69;5053547;28;19921;-80
2022/11/25 10:45:19;;;;;;;;;;;5.80;86.30;;;4.57;80.22;96420.44;5057052;28;19921;-81
2022/11/25 10:47:55;;;;;;;;;;;5.80;86.30;;;4.56;80.32;96425.06;5072366;28;20234;-81
2022/11/25 10:50:26;;;;;;;;;;;5.80;86.30;;;4.56;80.12;96429.63;5055900;28;19920;-81
2022/11/25 10:52:56;;;;;;;;;;;5.80;86.30;;;4.56;80.00;96424.22;5072613;28;19929;-81
2022/11/25 10:55:25;;;;;;;;;;;5.80;86.30;;;4.55;80.04;96426.13;5105486;28;19920;-81
2022/11/25 10:57:54;;;;;;;;;;;5.80;86.30;;;4.56;80.10;96429.63;5072284;28;19943;-81
2022/11/25 11:00:31;;;;;;;;;;;5.80;87.10;;;4.55;79.91;96428.81;5073304;28;19927;-81
2022/11/25 11:02:59;;;;;;;;;;;5.70;86.20;;;4.55;79.98;96425.28;5073702;28;20127;-81
2022/11/25 11:05:28;;;;;;;;;;;5.80;86.30;;;4.55;80.26;96430.69;5072690;28;19927;-80
2022/11/25 11:08:16;;;;;;;;;;;5.80;86.30;;;4.55;80.17;96433.41;5072030;28;19921;-80
2022/11/25 11:10:44;;;;;;;;;;;5.70;86.20;;;4.54;80.15;96426.31;5072040;28;20224;-81
2022/11/25 11:13:24;;;;;;;;;;;5.70;86.40;;;4.53;80.21;96425.50;5055367;28;19921;-81
2022/11/25 11:15:52;;;;;;;;;;;5.70;86.30;;;4.52;79.77;96434.69;5054863;28;19931;-81
2022/11/25 11:18:25;;;;;;;;;;;5.70;86.40;;;4.52;80.46;96429.28;5071892;28;19920;-81
2022/11/25 11:20:54;;;;;;;;;;;5.70;86.30;;;4.53;79.98;96444.50;5071717;28;19920;-80
2022/11/25 11:23:22;;;;;;;;;;;5.70;86.30;;;4.54;80.28;96434.47;5071781;28;19952;-80
2022/11/25 11:25:58;;;;;;;;;;;5.70;86.40;;;4.51;80.20;96433.03;5054803;28;20209;-80
2022/11/25 11:28:37;;;;;;;;;;;5.70;86.30;;;4.51;80.45;96433.03;5088475;28;19921;-80
2022/11/25 11:31:07;;;;;;;;;;;5.70;86.40;;;4.51;80.46;96430.31;5071905;28;20209;-81
2022/11/25 11:33:37;;;;;;;;;;;5.70;86.40;;;4.51;80.27;96433.03;5054831;28;19931;-81
2022/11/25 11:36:17;;;;;;;;;;;5.70;86.40;;;4.51;80.25;96434.94;5071416;28;20260;-81
2022/11/25 11:38:48;;;;;;;;;;;5.70;86.40;;;4.51;80.50;96435.75;5071515;28;19920;-81
2022/11/25 11:41:19;;;;;;;;;;;5.70;86.40;;;4.51;80.07;96433.03;5071708;28;20116;-81
2022/11/25 11:43:58;;;;;;;;;;;5.70;86.40;;;4.50;80.03;96436.78;5054747;28;20121;-80
2022/11/25 11:46:50;;;;;;;;;;;5.70;86.30;;;4.52;80.08;96439.31;5071290;28;20112;-81
2022/11/25 11:49:29;;;;;;;;;;;5.70;86.40;;;4.51;79.99;96449.31;5071381;28;20112;-81
2022/11/25 11:52:00;;;;;;;;;;;5.70;86.40;;;4.50;80.36;96442.22;5072626;28;19920;-81
2022/11/25 11:54:31;;;;;;;;;;;5.70;86.40;;;4.50;80.13;96441.41;5054375;28;19920;-80
2022/11/25 11:57:02;;;;;;;;;;;5.70;86.40;;;4.50;80.62;96444.13;5053467;28;19956;-81
2022/11/25 11:59:47;;;;;;;;;;;5.70;86.40;;;4.50;80.11;96444.13;5071115;28;20117;-81